Strona główna
METAR-TAF:

METAR-TAF

Lotnisko :

Shelbyville Municipal Airport

Shelbyville, Indiana, Stany Zjednoczone

Szerokość geograficzna: 39-35-08N, Długość geograficzna: 085-48-00W, wysokość: 245 m

Aktualna obserwacja pogody

Raport powstał 34 minut temu, godzina 07:53 UTC
Cisza
Temperatura 21°C
Wilgotność 83%
Ciśnienie 1013 hPa
Widzialność: 16.1 km
Przerywane chmury na wysokości 4500 ft
Zachmurzenie całkowite na wysokości 5000 ft

METAR: KGEZ 280753Z AUTO 00000KT 10SM BKN045 OVC050 21/18 A2992 RMK AO2 SLP126 T02110183

czas: 04:27 (08:27 UTC)


TAF: brakujący

Obserwacja i prognoza pogody dla ponad 4000 lotnisk (raport METAR i TAF).

Dostępne stacje oznaczono żółtymi i czerwonymi punktami na mapie.

Najedź kursorem aby zobaczyć nazwę stacji.

Kliknij aby zobaczyć obserwacje i prognozy pogody.

Aby zmienić mapę: kliknij na zielony przycisk z czarnym krzyżykiem, aby powiększyć; na zielony przycisk z myślnikiem, aby pomniejszyć; na zielone strzałki, aby przejść do map sąsiednich.


METAR-TAF: